createdAt,value
2017-12-12T00:01:36.561Z,1.00
2017-12-12T00:04:04.002Z,1.00
2017-12-12T00:06:32.119Z,1.00
2017-12-12T00:08:59.560Z,1.33
2017-12-12T00:11:27.017Z,1.20
2017-12-12T00:13:54.456Z,0.90
2017-12-12T00:16:23.473Z,0.90
2017-12-12T00:18:51.021Z,0.80
2017-12-12T00:21:21.109Z,0.90
2017-12-12T00:23:51.426Z,1.10
2017-12-12T00:26:18.875Z,1.15
2017-12-12T00:28:51.235Z,1.00
2017-12-12T00:31:19.453Z,1.15
2017-12-12T00:33:46.898Z,1.10
2017-12-12T00:36:14.352Z,1.10
2017-12-12T00:38:41.837Z,1.30
2017-12-12T00:41:09.711Z,1.15
2017-12-12T00:43:39.104Z,1.42
2017-12-12T00:46:07.530Z,1.10
2017-12-12T00:48:35.740Z,1.10
2017-12-12T00:51:07.650Z,0.90
2017-12-12T00:53:35.180Z,1.23
2017-12-12T00:56:02.624Z,0.98
2017-12-12T00:58:33.018Z,1.00
2017-12-12T01:01:01.061Z,0.90
2017-12-12T01:03:28.522Z,1.15
2017-12-12T01:05:56.054Z,0.98
2017-12-12T01:08:23.601Z,1.20
2017-12-12T01:10:53.982Z,1.00
2017-12-12T01:13:22.310Z,1.10
2017-12-12T01:15:49.753Z,0.95
2017-12-12T01:18:17.213Z,1.15
2017-12-12T01:20:44.649Z,0.90
2017-12-12T01:23:12.108Z,0.90
2017-12-12T01:25:41.037Z,0.98
2017-12-12T01:28:08.488Z,1.00
2017-12-12T01:30:35.921Z,0.90
2017-12-12T01:33:03.381Z,0.80
2017-12-12T01:35:33.298Z,0.90
2017-12-12T01:38:01.340Z,0.80
2017-12-12T01:40:30.488Z,1.25
2017-12-12T01:42:57.946Z,0.85
2017-12-12T01:45:29.386Z,0.70
2017-12-12T01:47:56.978Z,0.70
2017-12-12T01:50:27.057Z,0.70
2017-12-12T01:52:59.790Z,0.70
2017-12-12T01:55:31.072Z,0.77
2017-12-12T01:57:58.530Z,0.70
2017-12-12T02:00:26.486Z,0.70
2017-12-12T02:02:54.996Z,0.70
2017-12-12T02:05:23.429Z,0.82
2017-12-12T02:07:50.934Z,0.70
2017-12-12T02:10:18.402Z,0.73
2017-12-12T02:12:45.845Z,0.60
2017-12-12T02:15:13.297Z,0.70
2017-12-12T02:17:40.742Z,0.70
2017-12-12T02:20:12.434Z,0.80
2017-12-12T02:22:39.878Z,0.70
2017-12-12T02:25:08.568Z,0.60
2017-12-12T02:27:36.026Z,0.70
2017-12-12T02:30:06.515Z,0.70
2017-12-12T02:32:35.681Z,0.68
2017-12-12T02:35:03.896Z,0.70
2017-12-12T02:37:31.343Z,0.68
2017-12-12T02:39:58.799Z,0.75
2017-12-12T02:42:26.251Z,0.60
2017-12-12T02:44:53.698Z,0.90
2017-12-12T02:47:21.197Z,0.70
2017-12-12T02:49:49.759Z,0.60
2017-12-12T02:52:17.207Z,0.60
2017-12-12T02:54:44.667Z,0.70
2017-12-12T02:57:12.117Z,0.60
2017-12-12T02:59:39.612Z,0.70
2017-12-12T03:02:07.062Z,0.70
2017-12-12T03:04:34.501Z,0.70
2017-12-12T03:07:02.820Z,0.70
2017-12-12T03:09:30.638Z,0.80
2017-12-12T03:11:58.194Z,0.82
2017-12-12T03:14:26.981Z,0.70
2017-12-12T03:16:57.273Z,0.80
2017-12-12T03:19:34.166Z,0.70
2017-12-12T03:22:01.617Z,0.70
2017-12-12T03:24:29.547Z,0.90
2017-12-12T03:26:57.065Z,0.85
2017-12-12T03:29:27.905Z,0.80
2017-12-12T03:31:55.366Z,0.93
2017-12-12T03:34:22.816Z,0.80
2017-12-12T03:36:51.060Z,0.70
2017-12-12T03:39:19.262Z,0.60
2017-12-12T03:41:47.769Z,0.82
2017-12-12T03:44:17.742Z,0.88
2017-12-12T03:46:45.245Z,1.08
2017-12-12T03:49:13.819Z,0.70
2017-12-12T03:51:41.264Z,0.80
2017-12-12T03:54:11.071Z,1.00
2017-12-12T03:56:47.973Z,1.48
2017-12-12T03:59:15.416Z,0.90
2017-12-12T04:01:42.874Z,0.80
2017-12-12T04:04:11.654Z,0.90
2017-12-12T04:06:39.132Z,0.80
2017-12-12T04:09:09.170Z,0.90
2017-12-12T04:11:39.565Z,1.02
2017-12-12T04:14:07.952Z,0.90
2017-12-12T04:16:35.405Z,0.90
2017-12-12T04:19:02.866Z,0.90
2017-12-12T04:21:30.399Z,0.90
2017-12-12T04:24:00.007Z,0.90
2017-12-12T04:26:27.439Z,0.90
2017-12-12T04:28:55.666Z,1.10
2017-12-12T04:31:24.084Z,1.20
2017-12-12T04:33:52.306Z,1.02
2017-12-12T04:36:19.778Z,1.12
2017-12-12T04:38:50.364Z,1.00
2017-12-12T04:41:19.321Z,1.37
2017-12-12T04:43:46.861Z,1.70
2017-12-12T04:46:14.305Z,1.80
2017-12-12T04:48:41.771Z,1.90
2017-12-12T04:51:09.208Z,1.60
2017-12-12T04:53:36.656Z,1.60
2017-12-12T04:56:05.341Z,2.00
2017-12-12T04:58:36.887Z,1.62
2017-12-12T05:01:05.847Z,2.35
2017-12-12T05:03:34.808Z,2.00
2017-12-12T05:06:02.249Z,2.67
2017-12-12T05:08:29.701Z,2.72
2017-12-12T05:10:57.144Z,3.30
2017-12-12T05:13:24.599Z,2.20
2017-12-12T05:15:52.037Z,3.33
2017-12-12T05:18:21.237Z,2.45
2017-12-12T05:20:48.678Z,3.20
2017-12-12T05:23:16.902Z,3.72
2017-12-12T05:25:44.386Z,2.70
2017-12-12T05:28:11.838Z,3.87
2017-12-12T05:30:39.276Z,4.20
2017-12-12T05:33:06.753Z,2.60
2017-12-12T05:35:34.196Z,2.60
2017-12-12T05:38:01.632Z,2.53
2017-12-12T05:40:29.085Z,2.55
2017-12-12T05:42:56.530Z,2.22
2017-12-12T05:45:23.978Z,3.08
2017-12-12T05:47:51.416Z,2.83
2017-12-12T05:50:21.049Z,2.90
2017-12-12T05:52:49.580Z,3.08
2017-12-12T05:55:17.135Z,2.87
2017-12-12T05:57:44.585Z,3.12
2017-12-12T06:00:12.042Z,2.47
2017-12-12T06:02:39.488Z,2.58
2017-12-12T06:05:06.962Z,2.30
2017-12-12T06:07:34.397Z,3.35
2017-12-12T06:10:01.879Z,3.03
2017-12-12T06:12:29.320Z,2.55
2017-12-12T06:14:56.886Z,2.55
2017-12-12T06:17:24.344Z,1.87
2017-12-12T06:19:51.801Z,3.15
2017-12-12T06:22:19.248Z,2.55
2017-12-12T06:24:46.700Z,3.05
2017-12-12T06:27:14.175Z,4.22
2017-12-12T06:29:41.639Z,2.28
2017-12-12T06:32:09.082Z,2.60
2017-12-12T06:34:36.536Z,2.45
2017-12-12T06:37:03.997Z,2.40
2017-12-12T06:39:31.457Z,2.60
2017-12-12T06:41:58.899Z,2.53
2017-12-12T06:44:26.340Z,2.40
2017-12-12T06:46:53.800Z,2.70
2017-12-12T06:49:21.246Z,2.30
2017-12-12T06:51:48.737Z,2.72
2017-12-12T06:54:16.290Z,2.78
2017-12-12T06:56:43.855Z,2.70
2017-12-12T06:59:11.293Z,3.00
2017-12-12T07:01:38.748Z,3.58
2017-12-12T07:04:06.194Z,2.60
2017-12-12T07:06:33.681Z,3.75
2017-12-12T07:09:01.121Z,3.45
2017-12-12T07:11:28.582Z,2.65
2017-12-12T07:13:56.053Z,3.00
2017-12-12T07:16:23.504Z,2.58
2017-12-12T07:18:50.951Z,2.97
2017-12-12T07:21:18.421Z,2.87
2017-12-12T07:23:45.870Z,2.67
2017-12-12T07:26:13.316Z,2.65
2017-12-12T07:28:40.761Z,1.80
2017-12-12T07:31:08.215Z,2.45
2017-12-12T07:33:35.706Z,3.17
2017-12-12T07:36:03.157Z,2.72
2017-12-12T07:38:30.630Z,2.65
2017-12-12T07:40:58.082Z,2.92
2017-12-12T07:43:25.521Z,2.12
2017-12-12T07:45:52.979Z,2.35
2017-12-12T07:48:20.444Z,2.00
2017-12-12T07:50:47.899Z,1.80
2017-12-12T07:53:15.341Z,2.28
2017-12-12T07:55:42.786Z,2.10
2017-12-12T07:58:10.283Z,2.10
2017-12-12T08:00:37.714Z,2.53
2017-12-12T08:03:05.180Z,1.75
2017-12-12T08:05:32.617Z,2.12
2017-12-12T08:08:00.070Z,3.45
2017-12-12T08:10:27.508Z,2.72
2017-12-12T08:12:55.021Z,2.17
2017-12-12T08:15:22.457Z,2.50
2017-12-12T08:17:49.918Z,2.92
2017-12-12T08:20:17.361Z,2.62
2017-12-12T08:22:44.805Z,2.00
2017-12-12T08:25:12.250Z,1.98
2017-12-12T08:27:39.697Z,2.00
2017-12-12T08:30:07.902Z,1.90
2017-12-12T08:32:35.385Z,2.15
2017-12-12T08:35:02.843Z,2.75
2017-12-12T08:37:30.289Z,2.65
2017-12-12T08:39:57.724Z,2.10
2017-12-12T08:42:25.285Z,2.75
2017-12-12T08:44:52.772Z,1.70
2017-12-12T08:47:20.221Z,1.80
2017-12-12T08:49:47.669Z,3.03
2017-12-12T08:52:15.126Z,3.17
2017-12-12T08:54:42.610Z,2.22
2017-12-12T08:57:10.082Z,2.17
2017-12-12T08:59:37.521Z,2.15
2017-12-12T09:02:04.970Z,2.33
2017-12-12T09:04:32.421Z,2.92
2017-12-12T09:06:59.881Z,2.53
2017-12-12T09:09:27.328Z,2.55
2017-12-12T09:11:54.777Z,2.50
2017-12-12T09:14:22.225Z,2.00
2017-12-12T09:16:49.679Z,2.20
2017-12-12T09:19:17.137Z,1.62
2017-12-12T09:21:44.576Z,2.25
2017-12-12T09:24:12.039Z,1.90
2017-12-12T09:26:39.477Z,2.10
2017-12-12T09:29:07.698Z,2.08
2017-12-12T09:31:35.141Z,2.00
2017-12-12T09:34:02.597Z,2.00
2017-12-12T09:36:30.076Z,2.55
2017-12-12T09:38:57.530Z,2.03
2017-12-12T09:41:24.994Z,2.15
2017-12-12T09:43:52.445Z,2.05
2017-12-12T09:46:19.903Z,2.87
2017-12-12T09:48:47.358Z,2.25
2017-12-12T09:51:14.793Z,1.80
2017-12-12T09:53:42.281Z,2.15
2017-12-12T09:56:09.739Z,2.20
2017-12-12T09:58:37.190Z,2.05
2017-12-12T10:01:04.745Z,2.60
2017-12-12T10:03:32.236Z,2.35
2017-12-12T10:05:59.645Z,2.22
2017-12-12T10:08:27.105Z,1.90
2017-12-12T10:10:54.543Z,6.00
2017-12-12T10:13:22.033Z,2.40
2017-12-12T10:15:49.485Z,2.62
2017-12-12T10:18:16.946Z,2.55
2017-12-12T10:20:44.501Z,2.30
2017-12-12T10:23:11.962Z,11.88
2017-12-12T10:25:39.408Z,2.00
2017-12-12T10:28:06.862Z,2.87
2017-12-12T10:30:34.321Z,2.70
2017-12-12T10:33:01.765Z,2.60
2017-12-12T10:35:29.225Z,2.62
2017-12-12T10:37:56.674Z,2.22
2017-12-12T10:40:24.165Z,2.55
2017-12-12T10:42:51.627Z,3.08
2017-12-12T10:45:19.082Z,2.35
2017-12-12T10:47:46.532Z,2.35
2017-12-12T10:50:14.085Z,2.58
2017-12-12T10:52:41.529Z,2.10
2017-12-12T10:55:08.987Z,2.40
2017-12-12T10:57:36.432Z,2.33
2017-12-12T11:00:03.918Z,2.20
2017-12-12T11:02:31.364Z,2.22
2017-12-12T11:04:58.815Z,2.72
2017-12-12T11:07:26.259Z,2.03
2017-12-12T11:09:53.721Z,1.55
2017-12-12T11:12:21.209Z,1.90
2017-12-12T11:14:48.671Z,1.50
2017-12-12T11:17:16.122Z,1.60
2017-12-12T11:19:43.569Z,1.42
2017-12-12T11:22:11.139Z,1.80
2017-12-12T11:24:38.577Z,1.27
2017-12-12T11:27:06.040Z,1.95
2017-12-12T11:29:33.499Z,1.80
2017-12-12T11:32:00.947Z,1.60
2017-12-12T11:34:28.385Z,1.85
2017-12-12T11:36:55.838Z,1.55
2017-12-12T11:39:23.285Z,2.55
2017-12-12T11:41:50.736Z,1.50
2017-12-12T11:44:18.246Z,1.55
2017-12-12T11:46:45.796Z,1.70
2017-12-12T11:49:13.246Z,1.40
2017-12-12T11:51:40.697Z,1.50
2017-12-12T11:54:08.175Z,1.52
2017-12-12T11:56:35.633Z,1.00
2017-12-12T11:59:03.194Z,1.80
2017-12-12T12:01:30.749Z,1.42
2017-12-12T12:03:58.274Z,1.37
2017-12-12T12:06:25.708Z,1.37
2017-12-12T12:08:53.946Z,1.70
2017-12-12T12:11:21.498Z,1.70
2017-12-12T12:13:49.058Z,1.60
2017-12-12T12:16:16.610Z,7.53
2017-12-12T12:18:44.152Z,2.35
2017-12-12T12:21:11.624Z,2.42
2017-12-12T12:23:39.085Z,2.75
2017-12-12T12:26:06.538Z,2.97
2017-12-12T12:28:34.102Z,1.80
2017-12-12T12:31:01.545Z,2.67
2017-12-12T12:33:28.995Z,2.17
2017-12-12T12:35:56.468Z,2.60
2017-12-12T12:38:24.034Z,2.15
2017-12-12T12:40:51.475Z,1.98
2017-12-12T12:43:18.931Z,2.12
2017-12-12T12:45:46.378Z,1.90
2017-12-12T12:48:13.834Z,2.30
2017-12-12T12:50:41.282Z,2.55
2017-12-12T12:53:08.734Z,2.10
2017-12-12T12:55:36.193Z,2.65
2017-12-12T12:58:03.689Z,2.78
2017-12-12T13:00:31.139Z,2.90
2017-12-12T13:02:58.585Z,2.65
2017-12-12T13:05:26.042Z,3.12
2017-12-12T13:07:53.506Z,2.42
2017-12-12T13:10:20.950Z,2.60
2017-12-12T13:12:48.425Z,2.60
2017-12-12T13:15:15.881Z,2.40
2017-12-12T13:17:43.326Z,2.55
2017-12-12T13:20:10.778Z,3.33
2017-12-12T13:22:38.219Z,2.25
2017-12-12T13:25:05.672Z,2.45
2017-12-12T13:27:33.160Z,2.20
2017-12-12T13:30:00.721Z,2.60
2017-12-12T13:32:28.182Z,3.70
2017-12-12T13:34:55.635Z,2.40
2017-12-12T13:37:23.083Z,2.60
2017-12-12T13:39:50.537Z,3.37
2017-12-12T13:42:17.982Z,3.22
2017-12-12T13:44:45.421Z,3.00
2017-12-12T13:47:12.886Z,5.87
2017-12-12T13:49:41.090Z,6.20
2017-12-12T13:52:08.546Z,6.90
2017-12-12T13:54:35.997Z,2.85
2017-12-12T13:57:03.454Z,2.97
2017-12-12T13:59:30.899Z,3.50
2017-12-12T14:01:58.347Z,3.70
2017-12-12T14:04:25.834Z,4.65
2017-12-12T14:06:53.284Z,5.85
2017-12-12T14:09:20.733Z,12.25
2017-12-12T14:11:48.201Z,5.28
2017-12-12T14:14:15.661Z,3.17
2017-12-12T14:16:43.112Z,2.20
2017-12-12T14:19:10.557Z,4.70
2017-12-12T14:21:38.010Z,3.28
2017-12-12T14:24:05.457Z,2.62
2017-12-12T14:26:32.959Z,3.08
2017-12-12T14:29:00.408Z,3.75
2017-12-12T14:31:27.853Z,2.58
2017-12-12T14:33:55.316Z,2.85
2017-12-12T14:36:22.768Z,4.57
2017-12-12T14:38:50.237Z,2.90
2017-12-12T14:41:17.789Z,3.45
2017-12-12T14:43:45.233Z,3.00
2017-12-12T14:46:12.701Z,2.15
2017-12-12T14:48:40.155Z,2.03
2017-12-12T14:51:07.613Z,2.20
2017-12-12T14:53:35.076Z,2.35
2017-12-12T14:56:02.523Z,2.00
2017-12-12T14:58:29.971Z,2.17
2017-12-12T15:00:57.411Z,2.58
2017-12-12T15:03:24.904Z,2.50
2017-12-12T15:05:52.344Z,2.20
2017-12-12T15:08:19.812Z,2.20
2017-12-12T15:10:47.269Z,1.87
2017-12-12T15:13:14.725Z,1.80
2017-12-12T15:15:42.170Z,1.83
2017-12-12T15:18:09.618Z,1.75
2017-12-12T15:20:37.066Z,5.25
2017-12-12T15:23:04.525Z,3.08
2017-12-12T15:25:31.966Z,6.40
2017-12-12T15:27:59.412Z,7.30
2017-12-12T15:30:26.866Z,3.28
2017-12-12T15:32:55.098Z,3.15
2017-12-12T15:35:22.542Z,4.78
2017-12-12T15:37:50.007Z,5.05
2017-12-12T15:40:17.478Z,3.37
2017-12-12T15:42:44.922Z,3.33
2017-12-12T15:45:12.481Z,3.45
2017-12-12T15:47:39.937Z,2.75
2017-12-12T15:50:07.394Z,2.72
2017-12-12T15:52:34.838Z,2.70
2017-12-12T15:55:02.323Z,2.55
2017-12-12T15:57:29.772Z,2.72
2017-12-12T15:59:57.221Z,3.35
2017-12-12T16:02:24.669Z,2.72
2017-12-12T16:04:53.033Z,2.12
2017-12-12T16:07:20.488Z,2.33
2017-12-12T16:09:47.941Z,3.15
2017-12-12T16:12:15.432Z,2.28
2017-12-12T16:14:42.880Z,2.30
2017-12-12T16:17:10.325Z,3.17
2017-12-12T16:19:37.770Z,3.12
2017-12-12T16:22:05.213Z,4.53
2017-12-12T16:24:32.665Z,5.35
2017-12-12T16:27:00.170Z,6.00
2017-12-12T16:29:27.625Z,6.82
2017-12-12T16:31:55.071Z,8.48
2017-12-12T16:34:22.526Z,9.85
2017-12-12T16:36:49.975Z,7.50
2017-12-12T16:39:17.428Z,8.30
2017-12-12T16:41:44.912Z,8.07
2017-12-12T16:44:12.468Z,7.70
2017-12-12T16:46:39.922Z,7.87
2017-12-12T16:49:07.485Z,6.95
2017-12-12T16:51:34.941Z,6.90
2017-12-12T16:54:02.385Z,6.75
2017-12-12T16:56:29.838Z,5.68
2017-12-12T16:58:57.317Z,5.82
2017-12-12T17:01:24.772Z,3.20
2017-12-12T17:03:52.210Z,4.07
2017-12-12T17:06:19.666Z,3.83
2017-12-12T17:08:47.113Z,8.40
2017-12-12T17:11:14.569Z,11.63
2017-12-12T17:13:42.031Z,11.10
2017-12-12T17:16:09.481Z,10.48
2017-12-12T17:18:36.937Z,12.37
2017-12-12T17:21:04.433Z,15.82
2017-12-12T17:23:31.890Z,16.83
2017-12-12T17:25:59.350Z,17.45
2017-12-12T17:28:26.796Z,13.70
2017-12-12T17:30:54.349Z,12.32
2017-12-12T17:33:21.801Z,11.95
2017-12-12T17:35:49.369Z,7.20
2017-12-12T17:38:16.818Z,8.18
2017-12-12T17:40:44.271Z,7.07
2017-12-12T17:43:11.712Z,7.32
2017-12-12T17:45:39.204Z,8.57
2017-12-12T17:48:06.748Z,8.43
2017-12-12T17:50:34.205Z,9.25
2017-12-12T17:53:01.649Z,8.30
2017-12-12T17:55:29.110Z,10.20
2017-12-12T17:57:56.555Z,7.68
2017-12-12T18:00:24.005Z,8.70
2017-12-12T18:02:51.466Z,9.27
2017-12-12T18:05:18.919Z,9.18
2017-12-12T18:07:46.380Z,8.20
2017-12-12T18:10:13.828Z,10.02
2017-12-12T18:12:41.321Z,13.00
2017-12-12T18:15:09.804Z,11.60
2017-12-12T18:17:37.265Z,12.80
2017-12-12T18:20:04.717Z,13.45
2017-12-12T18:22:32.175Z,10.50
2017-12-12T18:24:59.728Z,10.65
2017-12-12T18:27:27.196Z,8.73
2017-12-12T18:29:54.649Z,7.95
2017-12-12T18:32:22.102Z,7.10
2017-12-12T18:34:49.553Z,4.97
2017-12-12T18:37:17.010Z,4.80
2017-12-12T18:39:44.474Z,4.70
2017-12-12T18:42:11.925Z,5.25
2017-12-12T18:44:39.374Z,5.30
2017-12-12T18:47:06.840Z,3.75
2017-12-12T18:49:35.250Z,3.80
2017-12-12T18:52:03.482Z,3.40
2017-12-12T18:54:30.930Z,4.82
2017-12-12T18:56:58.384Z,3.33
2017-12-12T18:59:25.838Z,4.47
2017-12-12T19:01:53.395Z,5.37
2017-12-12T19:04:20.846Z,4.30
2017-12-12T19:06:48.285Z,4.30
2017-12-12T19:09:15.795Z,9.52
2017-12-12T19:11:43.243Z,5.18
2017-12-12T19:14:10.701Z,5.30
2017-12-12T19:16:38.141Z,5.35
2017-12-12T19:19:05.594Z,10.70
2017-12-12T19:21:33.053Z,4.70
2017-12-12T19:24:00.500Z,7.03
2017-12-12T19:26:27.993Z,7.82
2017-12-12T19:28:55.548Z,9.35
2017-12-12T19:31:23.006Z,11.25
2017-12-12T19:33:50.574Z,8.52
2017-12-12T19:36:18.164Z,6.90
2017-12-12T19:38:45.605Z,8.20
2017-12-12T19:41:13.056Z,8.38
2017-12-12T19:43:40.510Z,6.72
2017-12-12T19:46:07.952Z,6.90
2017-12-12T19:48:35.386Z,7.10
2017-12-12T19:51:02.865Z,6.60
2017-12-12T19:53:30.467Z,8.07
2017-12-12T19:55:58.674Z,8.50
2017-12-12T19:58:26.189Z,9.45
2017-12-12T20:00:53.632Z,9.70
2017-12-12T20:03:21.128Z,10.45
2017-12-12T20:05:49.492Z,10.15
2017-12-12T20:08:17.748Z,9.15
2017-12-12T20:10:45.195Z,8.35
2017-12-12T20:13:12.677Z,8.50
2017-12-12T20:15:40.244Z,7.05
2017-12-12T20:18:08.450Z,9.70
2017-12-12T20:20:35.960Z,8.40
2017-12-12T20:23:03.544Z,6.87
2017-12-12T20:25:31.749Z,7.45
2017-12-12T20:27:59.266Z,8.48
2017-12-12T20:30:27.528Z,9.20
2017-12-12T20:32:55.037Z,10.60
2017-12-12T20:35:22.484Z,10.40
2017-12-12T20:37:49.937Z,9.50
2017-12-12T20:40:17.447Z,17.52
2017-12-12T20:42:44.976Z,20.62
2017-12-12T20:45:12.472Z,14.13
2017-12-12T20:47:39.915Z,10.45
2017-12-12T20:50:07.417Z,9.27
2017-12-12T20:52:35.608Z,8.18
2017-12-12T20:55:03.067Z,9.60
2017-12-12T20:57:30.564Z,12.40
2017-12-12T20:59:58.141Z,11.18
2017-12-12T21:02:25.628Z,9.98
2017-12-12T21:04:53.068Z,9.02
2017-12-12T21:07:27.117Z,10.05
2017-12-12T21:09:54.693Z,10.30
2017-12-12T21:12:22.152Z,10.18
2017-12-12T21:14:49.608Z,8.98
2017-12-12T21:17:17.056Z,10.55
2017-12-12T21:19:44.538Z,11.50
2017-12-12T21:22:12.028Z,9.80
2017-12-12T21:24:40.263Z,10.82
2017-12-12T21:27:07.758Z,10.63
2017-12-12T21:29:35.961Z,14.20
2017-12-12T21:32:03.419Z,13.00
2017-12-12T21:34:30.906Z,10.88
2017-12-12T21:36:58.361Z,11.43
2017-12-12T21:39:25.812Z,11.20
2017-12-12T21:41:54.093Z,12.30
2017-12-12T21:44:21.530Z,11.18
2017-12-12T21:46:48.988Z,10.75
2017-12-12T21:49:16.443Z,13.75
2017-12-12T21:51:43.898Z,15.05
2017-12-12T21:54:11.347Z,12.40
2017-12-12T21:56:38.809Z,12.93
2017-12-12T22:02:35.462Z,12.20
2017-12-12T22:05:12.284Z,13.13
2017-12-12T22:08:05.158Z,13.65
2017-12-12T22:10:33.383Z,10.75
2017-12-12T22:13:00.949Z,13.45
2017-12-12T22:15:28.398Z,14.90
2017-12-12T22:17:55.856Z,14.30
2017-12-12T22:20:23.312Z,14.35
2017-12-12T22:22:50.774Z,11.70
2017-12-12T22:25:18.263Z,12.90
2017-12-12T22:27:45.713Z,13.25
2017-12-12T22:30:13.965Z,12.27
2017-12-12T22:32:41.424Z,13.65
2017-12-12T22:35:08.924Z,14.85
2017-12-12T22:37:37.141Z,18.17
2017-12-12T22:40:04.681Z,19.67
2017-12-12T22:42:32.181Z,19.70
2017-12-12T22:44:59.697Z,20.15
2017-12-12T22:47:27.153Z,17.85
2017-12-12T22:49:54.687Z,15.73
2017-12-12T22:52:22.921Z,16.08
2017-12-12T22:54:50.381Z,12.25
2017-12-12T22:57:17.846Z,14.10
2017-12-12T22:59:45.303Z,14.50
2017-12-12T23:02:12.849Z,13.98
2017-12-12T23:04:40.375Z,16.25
2017-12-12T23:07:07.820Z,17.52
2017-12-12T23:09:35.268Z,19.00
2017-12-12T23:12:02.728Z,16.27
2017-12-12T23:14:30.952Z,16.90
2017-12-12T23:16:58.403Z,15.00
2017-12-12T23:19:25.857Z,14.38
2017-12-12T23:21:53.309Z,10.77
2017-12-12T23:24:20.878Z,12.73
2017-12-12T23:26:48.322Z,11.18
2017-12-12T23:29:15.968Z,10.57
2017-12-12T23:31:43.407Z,10.30
2017-12-12T23:34:10.862Z,11.80
2017-12-12T23:36:38.305Z,9.18
2017-12-12T23:39:06.533Z,9.88
2017-12-12T23:41:33.986Z,8.65
2017-12-12T23:44:01.445Z,9.88
2017-12-12T23:46:28.995Z,12.25
2017-12-12T23:48:56.438Z,11.07
2017-12-12T23:51:23.901Z,12.45
2017-12-12T23:53:51.358Z,13.65
2017-12-12T23:56:18.802Z,12.05
2017-12-12T23:58:46.267Z,12.10
